Time;durP1;ratioP1;P1;durP2;ratioP2;P2;SDS_P1;SDS_P2;PMS_P1;PMS_P2;Temp;Humidity;BMP_temperature;BMP_pressure;BME280_temperature;BME280_humidity;BME280_pressure;Samples;Min_cycle;Max_cycle;Signal;HPM_P1;HPM_P2
2021/09/01 00:02:17;;;;;;;;;;;17.30;94.90;;;16.60;90.19;101631.91;4988913;28;20472;-69
2021/09/01 00:04:44;;;;;;;;;;;17.30;95.10;;;16.60;89.95;101626.41;4988735;28;20580;-69
2021/09/01 00:07:11;;;;;;;;;;;17.30;95.10;;;16.63;89.73;101627.94;4989297;28;19926;-69
2021/09/01 00:09:38;;;;;;;;;;;17.20;95.00;;;16.62;89.61;101638.09;4989447;28;20409;-69
2021/09/01 00:12:08;;;;;;;;;;;17.30;94.90;;;16.61;89.80;101630.88;4989268;28;19984;-69
2021/09/01 00:14:35;;;;;;;;;;;17.20;95.00;;;16.60;90.06;101641.03;4990221;28;20015;-70
2021/09/01 00:17:03;;;;;;;;;;;17.30;95.10;;;16.62;90.01;101638.09;5008798;28;19929;-69
2021/09/01 00:19:30;;;;;;;;;;;17.30;95.10;;;16.64;90.14;101647.00;5008603;28;19961;-69
2021/09/01 00:21:57;;;;;;;;;;;17.30;95.20;;;16.61;89.81;101644.63;4990662;28;19957;-69
2021/09/01 00:24:24;;;;;;;;;;;17.20;94.90;;;16.59;90.12;101644.81;5008438;28;20016;-69
2021/09/01 00:26:51;;;;;;;;;;;17.30;95.10;;;16.59;89.99;101647.56;5008448;28;19929;-69
2021/09/01 00:29:20;;;;;;;;;;;17.30;94.90;;;16.58;89.79;101651.38;5007510;28;19929;-69
2021/09/01 00:31:47;;;;;;;;;;;17.30;94.60;;;16.60;89.41;101648.41;4990996;28;19972;-69
2021/09/01 00:34:15;;;;;;;;;;;17.30;94.30;;;16.61;89.25;101644.63;5008264;28;19983;-69
2021/09/01 00:36:42;;;;;;;;;;;17.30;94.40;;;16.61;89.43;101655.63;5008289;28;20385;-69
2021/09/01 00:39:09;;;;;;;;;;;17.30;94.60;;;16.62;89.54;101649.09;5007966;28;20057;-69
2021/09/01 00:41:37;;;;;;;;;;;17.30;94.50;;;16.63;89.49;101650.78;5008114;28;19933;-69
2021/09/01 00:44:22;;;;;;;;;;;17.30;94.70;;;16.62;89.48;101643.59;5017332;28;21547;-69
2021/09/01 00:46:50;;;;;;;;;;;17.30;94.50;;;16.60;89.58;101645.66;5027556;28;19933;-69
2021/09/01 00:49:17;;;;;;;;;;;17.30;94.60;;;16.61;89.72;101647.38;5023947;28;20021;-69
2021/09/01 00:51:46;;;;;;;;;;;17.30;94.60;;;16.60;89.54;101645.66;5007557;28;19975;-69
2021/09/01 00:54:15;;;;;;;;;;;17.30;94.70;;;16.60;89.57;101643.78;5008014;28;19983;-69
2021/09/01 00:56:44;;;;;;;;;;;17.30;94.60;;;16.60;89.56;101642.91;5007935;28;19929;-69
2021/09/01 00:59:15;;;;;;;;;;;17.30;94.50;;;16.57;89.56;101637.81;5008053;28;20037;-69
2021/09/01 01:01:45;;;;;;;;;;;17.30;94.40;;;16.60;89.52;101637.41;5008267;28;19925;-69
2021/09/01 01:04:12;;;;;;;;;;;17.30;94.40;;;16.59;89.57;101636.56;5008069;28;19980;-69
2021/09/01 01:06:39;;;;;;;;;;;17.30;94.40;;;16.61;89.55;101644.63;5007601;28;19969;-69
2021/09/01 01:09:07;;;;;;;;;;;17.30;94.40;;;16.60;89.06;101642.91;5007585;28;19929;-69
2021/09/01 01:11:34;;;;;;;;;;;17.30;94.00;;;16.58;89.22;101642.25;5007762;28;19949;-69
2021/09/01 01:14:01;;;;;;;;;;;17.30;93.80;;;16.58;89.13;101642.25;5007582;28;19975;-69
2021/09/01 01:16:28;;;;;;;;;;;17.30;94.00;;;16.59;89.41;101643.97;4989302;28;19936;-69
2021/09/01 01:19:00;;;;;;;;;;;17.30;94.20;;;16.59;89.24;101649.47;5007607;28;19976;-69
2021/09/01 01:21:29;;;;;;;;;;;17.30;94.00;;;16.59;89.25;101638.47;5002120;28;19925;-69
2021/09/01 01:23:58;;;;;;;;;;;17.30;94.00;;;16.59;89.50;101643.97;5027072;28;19929;-69
2021/09/01 01:26:26;;;;;;;;;;;17.30;94.20;;;16.53;89.61;101640.13;5026895;28;19936;-69
2021/09/01 01:28:56;;;;;;;;;;;17.30;94.30;;;16.57;89.19;101637.81;5027231;28;19935;-69
2021/09/01 01:31:23;;;;;;;;;;;17.30;94.10;;;16.54;89.42;101646.44;5027407;28;19925;-69
2021/09/01 01:33:51;;;;;;;;;;;17.30;93.90;;;16.56;89.39;101639.72;5027622;28;20476;-69
2021/09/01 01:36:18;;;;;;;;;;;17.30;94.10;;;16.58;89.52;101645.00;5026922;28;19944;-69
2021/09/01 01:38:46;;;;;;;;;;;17.30;94.20;;;16.58;89.20;101648.63;5027191;28;19998;-69
2021/09/01 01:41:13;;;;;;;;;;;17.30;94.10;;;16.56;89.58;101638.84;5009448;28;19925;-69
2021/09/01 01:43:44;;;;;;;;;;;17.30;94.30;;;16.56;89.36;101649.84;5020589;28;19976;-69
2021/09/01 01:46:11;;;;;;;;;;;17.30;94.10;;;16.57;89.21;101648.81;5007085;28;19929;-69
2021/09/01 01:48:39;;;;;;;;;;;17.30;94.20;;;16.54;89.20;101646.44;5007382;28;19930;-69
2021/09/01 01:51:06;;;;;;;;;;;17.30;94.00;;;16.55;88.84;101650.91;4999962;28;20008;-69
2021/09/01 01:53:33;;;;;;;;;;;17.30;93.70;;;16.55;88.54;101649.00;4974171;28;19933;-69
2021/09/01 01:56:00;;;;;;;;;;;17.30;93.30;;;16.53;88.71;101653.00;4991056;28;20397;-69
2021/09/01 01:58:27;;;;;;;;;;;17.30;93.50;;;16.55;88.81;101662.75;4991431;28;20397;-69
2021/09/01 02:00:56;;;;;;;;;;;17.30;93.60;;;16.57;88.67;101665.31;4991323;28;20348;-69
2021/09/01 02:03:23;;;;;;;;;;;17.30;93.50;;;16.57;88.34;101657.06;4991287;28;19980;-69
2021/09/01 02:05:50;;;;;;;;;;;17.30;93.40;;;16.59;88.73;101663.22;4990841;28;20647;-69
2021/09/01 02:08:17;;;;;;;;;;;17.30;93.40;;;16.59;88.79;101666.81;4991220;28;20471;-69
2021/09/01 02:10:44;;;;;;;;;;;17.30;93.60;;;16.60;88.51;101659.41;4997255;28;19961;-69
2021/09/01 02:13:14;;;;;;;;;;;17.30;93.60;;;16.55;88.65;101657.25;5008885;28;19930;-69
2021/09/01 02:15:41;;;;;;;;;;;17.30;93.80;;;16.55;88.68;101659.16;4990733;28;19933;-69
2021/09/01 02:18:11;;;;;;;;;;;17.30;93.80;;;16.55;88.55;101653.66;4973502;28;19952;-69
2021/09/01 02:20:38;;;;;;;;;;;17.30;93.70;;;16.58;88.25;101658.75;5001093;28;19934;-69
2021/09/01 02:23:05;;;;;;;;;;;17.30;93.40;;;16.57;88.50;101657.06;5010274;28;20036;-69
2021/09/01 02:25:32;;;;;;;;;;;17.30;93.50;;;16.55;88.28;101653.66;4991464;28;19937;-69
2021/09/01 02:27:59;;;;;;;;;;;17.30;93.60;;;16.54;87.83;101651.94;4990632;28;20008;-69
2021/09/01 02:30:26;;;;;;;;;;;17.20;92.90;;;16.49;88.24;101648.97;4991018;28;20690;-69
2021/09/01 02:32:54;;;;;;;;;;;17.20;93.40;;;16.49;88.19;101648.97;4990273;28;19965;-69
2021/09/01 02:35:22;;;;;;;;;;;17.20;93.40;;;16.46;88.71;101646.59;4990082;28;19930;-69
2021/09/01 02:37:52;;;;;;;;;;;17.20;93.70;;;16.49;88.72;101643.47;4990378;28;19929;-69
2021/09/01 02:40:20;;;;;;;;;;;17.10;93.70;;;16.51;88.68;101644.13;4990393;28;20033;-69
2021/09/01 02:42:47;;;;;;;;;;;17.20;93.70;;;16.52;88.53;101643.06;4996303;28;20031;-69
2021/09/01 02:45:16;;;;;;;;;;;17.20;93.70;;;16.51;88.36;101641.38;5043990;23;20423;-66
2021/09/01 02:47:44;;;;;;;;;;;17.20;93.60;;;16.52;88.19;101637.56;5030778;28;20027;-66
2021/09/01 02:50:13;;;;;;;;;;;17.20;93.60;;;16.51;88.12;101635.88;5030644;28;19929;-66
2021/09/01 02:52:42;;;;;;;;;;;17.20;93.50;;;16.51;88.26;101638.63;5029156;28;19983;-66
2021/09/01 02:55:09;;;;;;;;;;;17.10;93.70;;;16.50;88.37;101642.41;5030149;28;19925;-66
2021/09/01 02:57:36;;;;;;;;;;;17.20;93.70;;;16.50;88.21;101647.91;5029236;28;19929;-67
2021/09/01 03:00:05;;;;;;;;;;;17.20;93.50;;;16.50;88.20;101656.13;5030307;28;19924;-66
2021/09/01 03:02:32;;;;;;;;;;;17.20;93.50;;;16.49;87.84;101657.19;5028947;28;20010;-67
2021/09/01 03:04:59;;;;;;;;;;;17.20;93.30;;;16.49;87.94;101654.47;5029989;28;20355;-67
2021/09/01 03:07:26;;;;;;;;;;;17.10;93.50;;;16.47;88.29;101656.50;5030355;28;19956;-66
2021/09/01 03:09:56;;;;;;;;;;;17.20;93.60;;;16.44;88.51;101659.69;5028842;28;19925;-67
2021/09/01 03:12:23;;;;;;;;;;;17.10;93.70;;;16.39;88.36;101658.38;5030079;28;20323;-66
2021/09/01 03:14:51;;;;;;;;;;;17.10;93.70;;;16.41;88.12;101655.41;5029706;28;19966;-67
2021/09/01 03:17:18;;;;;;;;;;;17.10;93.40;;;16.40;88.10;101654.56;5030287;28;19983;-67
2021/09/01 03:19:45;;;;;;;;;;;17.10;93.40;;;16.40;87.87;101651.81;5030163;28;19956;-67
2021/09/01 03:22:12;;;;;;;;;;;17.10;93.30;;;16.41;87.56;101652.66;5029891;28;19936;-66
2021/09/01 03:24:39;;;;;;;;;;;17.10;93.00;;;16.39;87.66;101652.88;5029801;28;20384;-66
2021/09/01 03:27:07;;;;;;;;;;;17.10;93.20;;;16.42;87.83;101654.38;5029636;28;19960;-66
2021/09/01 03:29:34;;;;;;;;;;;17.10;93.30;;;16.41;87.67;101652.66;5024929;28;19968;-66
2021/09/01 03:32:01;;;;;;;;;;;17.10;93.30;;;16.40;87.88;101662.81;5010075;28;19937;-66
2021/09/01 03:34:28;;;;;;;;;;;17.10;93.40;;;16.40;87.98;101657.31;5008413;28;20020;-66
2021/09/01 03:36:55;;;;;;;;;;;17.10;93.30;;;16.40;87.84;101651.81;5009630;28;19960;-66
2021/09/01 03:39:23;;;;;;;;;;;17.00;93.20;;;16.41;87.10;101659.03;5009684;28;20424;-66
2021/09/01 03:41:50;;;;;;;;;;;17.00;92.50;;;16.41;87.37;101658.16;5016758;28;19931;-66
2021/09/01 03:44:18;;;;;;;;;;;17.00;93.10;;;16.42;87.65;101655.22;5029528;28;19936;-66
2021/09/01 03:46:45;;;;;;;;;;;17.00;93.40;;;16.41;87.54;101656.28;5034320;28;19994;-66
2021/09/01 03:49:16;;;;;;;;;;;17.00;93.50;;;16.40;87.75;101661.97;5049387;28;19939;-66
2021/09/01 03:51:44;;;;;;;;;;;17.00;93.40;;;16.41;87.76;101667.25;5049441;28;19928;-66
2021/09/01 03:54:11;;;;;;;;;;;17.00;93.60;;;16.39;87.88;101660.25;5049114;28;19929;-66
2021/09/01 03:56:38;;;;;;;;;;;17.00;93.60;;;16.39;87.80;101660.25;5049036;28;20006;-66
2021/09/01 03:59:06;;;;;;;;;;;17.00;93.40;;;16.39;87.93;101654.75;5049291;28;19929;-67
2021/09/01 04:01:34;;;;;;;;;;;17.00;93.50;;;16.37;87.76;101668.72;5048206;28;19990;-66
2021/09/01 04:04:02;;;;;;;;;;;17.00;93.40;;;16.38;87.87;101664.06;5028928;28;20012;-67
2021/09/01 04:06:29;;;;;;;;;;;17.00;93.60;;;16.39;87.77;101671.22;5026380;28;20024;-67
2021/09/01 04:08:56;;;;;;;;;;;17.00;93.30;;;16.37;87.74;101665.97;5009184;28;19935;-66
2021/09/01 04:11:23;;;;;;;;;;;17.00;93.50;;;16.36;88.12;101667.00;5009326;28;20008;-66
2021/09/01 04:13:51;;;;;;;;;;;17.00;93.80;;;16.38;88.07;101669.56;5008909;28;19937;-67
2021/09/01 04:16:18;;;;;;;;;;;17.00;93.70;;;16.33;88.15;101672.84;5008755;28;19943;-66
2021/09/01 04:18:47;;;;;;;;;;;17.00;93.80;;;16.35;88.30;101681.75;5009279;28;19964;-66
2021/09/01 04:21:14;;;;;;;;;;;17.00;93.90;;;16.36;88.36;101677.97;5009129;28;20076;-66
2021/09/01 04:23:41;;;;;;;;;;;17.00;93.90;;;16.35;88.43;101676.25;5009499;28;19933;-66
2021/09/01 04:26:08;;;;;;;;;;;17.00;94.10;;;16.34;88.39;101679.22;5007389;28;19929;-66
2021/09/01 04:28:35;;;;;;;;;;;17.00;93.90;;;16.36;88.82;101667.00;5007769;28;19959;-66
2021/09/01 04:31:02;;;;;;;;;;;17.00;94.20;;;16.36;88.78;101680.72;5007765;28;19979;-67
2021/09/01 04:33:29;;;;;;;;;;;17.00;94.30;;;16.33;88.81;101681.09;5009084;28;19925;-66
2021/09/01 04:35:58;;;;;;;;;;;17.00;94.30;;;16.35;88.74;101684.50;5009226;28;19929;-67
2021/09/01 04:38:25;;;;;;;;;;;17.00;94.30;;;16.33;88.65;101678.34;5009196;28;19926;-67
2021/09/01 04:40:52;;;;;;;;;;;17.00;94.30;;;16.32;88.71;101682.16;5008579;28;19969;-66
2021/09/01 04:43:19;;;;;;;;;;;17.00;94.30;;;16.32;88.63;101686.81;5008663;28;19972;-66
2021/09/01 04:45:47;;;;;;;;;;;16.90;94.20;;;16.33;88.71;101688.50;5008288;28;20027;-66
2021/09/01 04:48:14;;;;;;;;;;;17.00;94.20;;;16.32;88.82;101681.31;5025633;28;19956;-66
2021/09/01 04:50:41;;;;;;;;;;;17.00;94.30;;;16.32;89.00;101687.66;5026996;28;20052;-66
2021/09/01 04:53:09;;;;;;;;;;;17.00;94.70;;;16.32;89.17;101690.41;5028262;28;20032;-67
2021/09/01 04:55:36;;;;;;;;;;;16.90;94.70;;;16.32;89.48;101678.56;5028086;28;20541;-67
2021/09/01 04:58:04;;;;;;;;;;;17.00;94.80;;;16.30;89.37;101678.75;5028339;28;20052;-67
2021/09/01 05:00:31;;;;;;;;;;;16.90;95.00;;;16.32;89.40;101678.56;5028222;28;19967;-66
2021/09/01 05:02:58;;;;;;;;;;;17.00;94.90;;;16.31;89.26;101679.59;5015126;28;19930;-66
2021/09/01 05:05:25;;;;;;;;;;;17.00;94.90;;;16.32;89.61;101682.16;5007861;28;20457;-67
2021/09/01 05:07:52;;;;;;;;;;;16.90;95.00;;;16.32;89.55;101687.66;5008308;28;19973;-66
2021/09/01 05:10:20;;;;;;;;;;;16.90;95.10;;;16.31;89.15;101688.69;5008136;28;20442;-66
2021/09/01 05:12:49;;;;;;;;;;;16.90;94.90;;;16.30;89.17;101687.00;5008109;28;19984;-67
2021/09/01 05:15:17;;;;;;;;;;;16.90;94.80;;;16.29;89.36;101681.69;5009596;28;19935;-68
2021/09/01 05:17:44;;;;;;;;;;;16.90;94.70;;;16.30;89.56;101683.41;5028205;28;19929;-68
2021/09/01 05:20:13;;;;;;;;;;;16.90;95.00;;;16.29;89.27;101692.69;5027744;28;19929;-68
2021/09/01 05:22:44;;;;;;;;;;;16.90;94.90;;;16.30;89.61;101692.50;5027918;28;20406;-70
2021/09/01 05:25:13;;;;;;;;;;;16.90;95.10;;;16.31;89.64;101687.84;5028214;28;20339;-69
2021/09/01 05:27:43;;;;;;;;;;;16.90;95.20;;;16.30;89.92;101698.00;5032056;28;20388;-69
2021/09/01 05:30:12;;;;;;;;;;;16.90;95.30;;;16.30;89.93;101692.50;5032427;28;19929;-69
2021/09/01 05:32:43;;;;;;;;;;;16.90;95.30;;;16.28;90.28;101691.84;5032341;28;20010;-69
2021/09/01 05:35:12;;;;;;;;;;;16.90;95.40;;;16.28;90.34;101697.34;5031914;28;19999;-69
2021/09/01 05:37:39;;;;;;;;;;;16.90;95.70;;;16.28;90.88;101701.97;5032201;28;19929;-69
2021/09/01 05:40:08;;;;;;;;;;;17.00;95.70;;;16.30;90.56;101702.66;5031981;28;19928;-69
2021/09/01 05:42:35;;;;;;;;;;;16.90;95.60;;;16.29;90.00;101701.78;5031767;28;20032;-69
2021/09/01 05:45:05;;;;;;;;;;;16.90;95.20;;;16.29;89.93;101700.94;5029598;28;19964;-69
2021/09/01 05:47:32;;;;;;;;;;;17.00;95.10;;;16.29;90.18;101699.03;5043899;28;20385;-69
2021/09/01 05:50:00;;;;;;;;;;;17.00;95.00;;;16.28;90.06;101697.34;5031877;28;19955;-69
2021/09/01 05:52:28;;;;;;;;;;;17.00;95.20;;;16.31;89.99;101696.94;5031657;28;19975;-69
2021/09/01 05:54:57;;;;;;;;;;;17.00;95.00;;;16.29;89.93;101689.94;5031169;28;19936;-70
2021/09/01 05:57:36;;;;;;;;;;;17.00;94.90;;;16.30;89.94;101689.75;5031662;28;19999;-69
2021/09/01 06:00:09;;;;;;;;;;;17.00;94.90;;;16.30;89.99;101686.16;5031560;28;19937;-69
2021/09/01 06:02:42;;;;;;;;;;;17.00;95.00;;;16.29;89.47;101693.53;5021920;28;19929;-68
2021/09/01 06:05:10;;;;;;;;;;;17.00;94.80;;;16.28;89.79;101696.47;5011439;28;19930;-68
2021/09/01 06:07:40;;;;;;;;;;;17.00;94.50;;;16.27;89.62;101701.13;5011866;28;19937;-69
2021/09/01 06:10:09;;;;;;;;;;;17.00;94.60;;;16.25;89.89;101700.47;5011759;28;19935;-68
2021/09/01 06:12:38;;;;;;;;;;;17.00;94.50;;;16.26;89.58;101698.56;5011793;28;20016;-68
2021/09/01 06:15:08;;;;;;;;;;;17.00;94.40;;;16.28;89.79;101705.59;5012801;28;19976;-68
2021/09/01 06:17:35;;;;;;;;;;;17.00;94.70;;;16.29;89.82;101710.00;5023557;28;19935;-67
2021/09/01 06:20:02;;;;;;;;;;;17.00;94.60;;;16.30;89.55;101706.25;5034390;28;20109;-67
2021/09/01 06:22:29;;;;;;;;;;;17.00;94.30;;;16.30;89.70;101706.25;5023646;28;19933;-67
2021/09/01 06:24:56;;;;;;;;;;;17.00;94.40;;;16.31;89.81;101709.81;5029309;28;19932;-67
2021/09/01 06:27:23;;;;;;;;;;;17.10;94.50;;;16.33;89.63;101711.31;5025429;28;20472;-67
2021/09/01 06:29:50;;;;;;;;;;;17.10;94.30;;;16.31;89.55;101707.91;5026986;28;20014;-68
2021/09/01 06:32:19;;;;;;;;;;;17.10;94.40;;;16.33;89.69;101710.47;5030762;28;20403;-68
2021/09/01 06:34:46;;;;;;;;;;;17.10;94.40;;;16.32;89.74;101712.38;5021720;28;19929;-67
2021/09/01 06:37:13;;;;;;;;;;;17.10;94.30;;;16.31;89.26;101712.56;5026995;28;20551;-68
2021/09/01 06:39:41;;;;;;;;;;;17.10;94.00;;;16.32;89.47;101709.63;5030508;28;19928;-68
2021/09/01 06:42:08;;;;;;;;;;;17.10;94.10;;;16.30;89.24;101711.72;5031042;28;19951;-68
2021/09/01 06:44:35;;;;;;;;;;;17.20;93.90;;;16.33;89.18;101714.06;5030319;28;19941;-68
2021/09/01 06:47:03;;;;;;;;;;;17.20;93.70;;;16.36;89.14;101710.94;5035326;28;20013;-68
2021/09/01 06:49:32;;;;;;;;;;;17.20;93.80;;;16.37;88.42;101709.03;5031329;28;19929;-68
2021/09/01 06:51:59;;;;;;;;;;;17.20;93.20;;;16.35;88.59;101711.97;5030891;28;20088;-68
2021/09/01 06:54:26;;;;;;;;;;;17.20;93.20;;;16.34;88.79;101706.72;5028672;28;20418;-67
2021/09/01 06:56:53;;;;;;;;;;;17.20;93.30;;;16.30;88.66;101705.41;5030825;28;19943;-67
2021/09/01 06:59:20;;;;;;;;;;;17.20;93.30;;;16.32;89.21;101715.13;5029165;28;19933;-67
2021/09/01 07:01:48;;;;;;;;;;;17.20;93.30;;;16.32;88.45;101719.78;5029098;28;20434;-68
2021/09/01 07:04:15;;;;;;;;;;;17.30;92.20;;;16.32;88.67;101719.78;5030292;28;19933;-68
2021/09/01 07:06:43;;;;;;;;;;;17.30;92.90;;;16.33;89.08;101710.47;5030231;28;19925;-68
2021/09/01 07:09:11;;;;;;;;;;;17.30;93.30;;;16.34;88.45;101712.19;5030081;28;19964;-67
2021/09/01 07:11:38;;;;;;;;;;;17.30;92.70;;;16.34;87.99;101718.53;5030642;28;19929;-67
2021/09/01 07:14:06;;;;;;;;;;;17.30;92.40;;;16.37;88.45;101720.91;5029792;28;19933;-68
2021/09/01 07:16:33;;;;;;;;;;;17.30;92.80;;;16.36;88.54;101721.09;5029924;28;20304;-68
2021/09/01 07:19:00;;;;;;;;;;;17.30;92.80;;;16.35;88.42;101720.22;5012303;28;19930;-68
2021/09/01 07:21:27;;;;;;;;;;;17.30;92.70;;;16.38;88.77;101725.34;5010485;28;19929;-68
2021/09/01 07:23:56;;;;;;;;;;;17.30;92.90;;;16.30;88.60;101727.38;5010642;28;19933;-67
2021/09/01 07:26:23;;;;;;;;;;;17.30;92.70;;;16.32;88.22;101731.63;5010094;28;19933;-69
2021/09/01 07:28:50;;;;;;;;;;;17.20;92.20;;;16.34;88.15;101737.78;5010232;28;19933;-69
2021/09/01 07:31:17;;;;;;;;;;;17.30;92.50;;;16.35;88.81;101733.13;5009656;28;19953;-68
2021/09/01 07:33:44;;;;;;;;;;;17.30;92.90;;;16.38;88.79;101741.81;5010369;28;19980;-68
2021/09/01 07:36:11;;;;;;;;;;;17.30;92.90;;;16.42;88.81;101742.28;5011225;28;19975;-68
2021/09/01 07:38:39;;;;;;;;;;;17.30;92.80;;;16.39;88.60;101751.78;5014325;28;20102;-68
2021/09/01 07:41:07;;;;;;;;;;;17.30;92.70;;;16.39;88.92;101759.16;5017760;28;19956;-68
2021/09/01 07:43:34;;;;;;;;;;;17.40;92.70;;;16.42;88.88;101762.38;5018249;28;19929;-68
2021/09/01 07:46:01;;;;;;;;;;;17.40;92.80;;;16.44;88.56;101766.84;5014048;28;19930;-68
2021/09/01 07:48:28;;;;;;;;;;;17.40;92.60;;;16.41;88.53;101759.81;5024067;28;19965;-68
2021/09/01 07:50:55;;;;;;;;;;;17.40;92.10;;;16.45;88.54;101765.78;5029665;28;19940;-67
2021/09/01 07:53:23;;;;;;;;;;;17.40;92.30;;;16.47;88.81;101781.06;5029287;28;20466;-68
2021/09/01 07:55:50;;;;;;;;;;;17.40;92.40;;;16.47;88.42;101774.69;5009140;28;19936;-68
2021/09/01 07:58:18;;;;;;;;;;;17.50;92.20;;;16.51;88.76;101787.00;5018413;28;20019;-68
2021/09/01 08:00:45;;;;;;;;;;;17.50;92.60;;;16.48;88.83;101790.13;5049325;28;19981;-68
2021/09/01 08:03:13;;;;;;;;;;;17.50;92.40;;;16.49;88.67;101794.59;5030161;28;19926;-68
2021/09/01 08:05:40;;;;;;;;;;;17.50;92.10;;;16.53;88.58;101793.16;5009286;28;19929;-68
2021/09/01 08:08:07;;;;;;;;;;;17.50;92.30;;;16.54;88.66;101795.69;5009423;28;19960;-68
2021/09/01 08:10:34;;;;;;;;;;;17.60;92.30;;;16.52;88.42;101802.44;5023297;28;19987;-68
2021/09/01 08:13:01;;;;;;;;;;;17.60;92.20;;;16.51;88.22;101800.75;5029126;28;19967;-68
2021/09/01 08:15:30;;;;;;;;;;;17.60;92.00;;;16.52;88.46;101796.94;5028420;28;19940;-68
2021/09/01 08:17:57;;;;;;;;;;;17.60;92.10;;;16.53;88.09;101798.66;5029092;28;20032;-68
2021/09/01 08:20:24;;;;;;;;;;;17.60;91.60;;;16.51;88.03;101798.00;5027488;28;20023;-68
2021/09/01 08:22:51;;;;;;;;;;;17.60;91.70;;;16.55;87.81;101808.41;5027453;28;19937;-68
2021/09/01 08:25:18;;;;;;;;;;;17.60;91.40;;;16.55;87.85;101804.81;5030708;28;19936;-68
2021/09/01 08:27:46;;;;;;;;;;;17.60;91.50;;;16.57;87.58;101808.22;5045771;28;19939;-68
2021/09/01 08:30:15;;;;;;;;;;;17.60;91.00;;;16.57;87.47;101805.47;5043431;28;19929;-68
2021/09/01 08:32:43;;;;;;;;;;;17.70;91.10;;;16.58;86.93;101809.91;5048676;28;20027;-68
2021/09/01 08:35:11;;;;;;;;;;;17.70;90.80;;;16.59;87.13;101803.38;5016139;28;19983;-68
2021/09/01 08:37:38;;;;;;;;;;;17.70;90.80;;;16.60;86.15;101805.94;5014954;28;19971;-68
2021/09/01 08:40:07;;;;;;;;;;;17.70;90.10;;;16.63;86.39;101809.34;5022182;28;20374;-68
2021/09/01 08:42:36;;;;;;;;;;;17.70;90.40;;;16.63;86.95;101809.34;5027554;28;20023;-68
2021/09/01 08:45:03;;;;;;;;;;;17.70;90.80;;;16.62;86.81;101814.00;5017433;23;19926;-67
2021/09/01 08:47:32;;;;;;;;;;;17.70;90.70;;;16.64;85.73;101816.53;5002903;28;20007;-66
2021/09/01 08:50:01;;;;;;;;;;;17.70;89.90;;;16.65;86.42;101810.84;4999308;28;19934;-66
2021/09/01 08:52:28;;;;;;;;;;;17.70;90.10;;;16.65;85.79;101810.84;4994452;28;20492;-66
2021/09/01 08:54:55;;;;;;;;;;;17.70;89.70;;;16.67;86.04;101813.41;4982909;28;20035;-67
2021/09/01 08:57:22;;;;;;;;;;;17.80;89.80;;;16.68;86.55;101817.84;5006799;28;20368;-67
2021/09/01 08:59:49;;;;;;;;;;;17.80;90.30;;;16.69;86.65;101814.91;4989623;28;19933;-66
2021/09/01 09:02:26;;;;;;;;;;;17.80;90.10;;;16.70;86.07;101816.63;4991329;28;20019;-66
2021/09/01 09:04:53;;;;;;;;;;;17.80;89.50;;;16.71;86.53;101812.81;5005583;28;19926;-66
2021/09/01 09:07:23;;;;;;;;;;;17.90;90.20;;;16.70;86.41;101816.63;5013206;28;19929;-66
2021/09/01 09:09:51;;;;;;;;;;;17.80;89.90;;;16.73;86.31;101815.38;4992282;28;19952;-66
2021/09/01 09:12:29;;;;;;;;;;;17.80;89.90;;;16.73;86.14;101818.97;4986449;28;19976;-67
2021/09/01 09:14:56;;;;;;;;;;;17.90;89.80;;;16.74;86.44;101812.44;5000584;28;19934;-66
2021/09/01 09:17:23;;;;;;;;;;;17.90;90.10;;;16.72;86.52;101814.53;4995421;28;19937;-66
2021/09/01 09:19:53;;;;;;;;;;;17.80;90.00;;;16.74;86.73;101819.84;5000688;28;19929;-66
2021/09/01 09:22:27;;;;;;;;;;;17.80;90.20;;;16.72;86.66;101813.69;5006557;28;20416;-67
2021/09/01 09:25:07;;;;;;;;;;;17.80;90.20;;;16.71;86.36;101815.56;4986631;28;19929;-66
2021/09/01 09:27:46;;;;;;;;;;;17.80;90.10;;;16.71;86.26;101822.97;4996987;28;19930;-66
2021/09/01 09:30:40;;;;;;;;;;;17.80;90.10;;;16.71;85.88;101821.06;5007537;28;19930;-66
2021/09/01 09:33:10;;;;;;;;;;;17.80;89.40;;;16.72;85.62;101820.03;4970310;28;19937;-67
2021/09/01 09:35:56;;;;;;;;;;;17.80;89.50;;;16.74;85.51;101819.84;5004811;28;20636;-66
2021/09/01 09:38:31;;;;;;;;;;;17.80;89.40;;;16.72;85.88;101820.03;5006337;28;20035;-67
2021/09/01 09:40:58;;;;;;;;;;;17.90;89.60;;;16.73;85.49;101818.97;5006938;28;19936;-66
2021/09/01 09:43:27;;;;;;;;;;;17.80;89.10;;;16.75;85.39;101825.16;5002932;28;19965;-66
2021/09/01 09:46:06;;;;;;;;;;;17.90;89.40;;;16.78;85.60;101823.91;4990905;28;19984;-67
2021/09/01 09:48:34;;;;;;;;;;;17.80;89.30;;;16.78;85.10;101829.41;4994806;28;20051;-66
2021/09/01 09:51:03;;;;;;;;;;;17.90;89.50;;;16.78;85.15;101824.75;4989826;28;20327;-66
2021/09/01 09:53:37;;;;;;;;;;;17.90;88.50;;;16.79;84.28;101829.22;4993142;28;19972;-66
2021/09/01 09:56:10;;;;;;;;;;;17.90;88.00;;;16.78;84.28;101827.50;5000595;28;19933;-66
2021/09/01 09:58:38;;;;;;;;;;;17.90;88.30;;;16.79;84.46;101826.47;4989096;28;19933;-66
2021/09/01 10:01:07;;;;;;;;;;;17.90;88.30;;;16.80;84.71;101821.81;5007279;28;19929;-66
2021/09/01 10:03:36;;;;;;;;;;;17.90;88.80;;;16.81;84.84;101824.38;5007310;28;19926;-66
2021/09/01 10:06:05;;;;;;;;;;;18.00;88.60;;;16.81;85.02;101827.13;5006532;28;19930;-66
2021/09/01 10:08:33;;;;;;;;;;;18.00;88.60;;;16.84;84.76;101823.16;4993592;28;20000;-66
2021/09/01 10:11:03;;;;;;;;;;;18.00;88.10;;;16.86;84.48;101815.56;5000047;28;20055;-66
2021/09/01 10:13:31;;;;;;;;;;;18.10;87.80;;;16.86;84.60;101809.22;5022140;28;19929;-66
2021/09/01 10:16:14;;;;;;;;;;;18.10;88.10;;;16.90;84.57;101810.53;4990769;28;20024;-66
2021/09/01 10:18:42;;;;;;;;;;;18.20;87.80;;;16.93;84.78;101810.16;5003235;28;19929;-66
2021/09/01 10:21:10;;;;;;;;;;;18.20;87.70;;;16.92;83.33;101805.69;4998445;28;20017;-66
2021/09/01 10:23:41;;;;;;;;;;;18.30;87.20;;;16.89;82.87;101808.84;5000969;28;19930;-66
2021/09/01 10:26:37;;;;;;;;;;;18.30;86.40;;;16.92;82.74;101802.94;5000652;28;20435;-66
2021/09/01 10:29:04;;;;;;;;;;;18.30;86.10;;;16.95;83.88;101797.91;4955353;28;19976;-66
2021/09/01 10:31:33;;;;;;;;;;;18.30;86.80;;;16.96;83.28;101798.75;5002513;28;19937;-66
2021/09/01 10:34:03;;;;;;;;;;;18.40;86.30;;;16.95;82.24;101797.91;4995667;28;20008;-66
2021/09/01 10:36:40;;;;;;;;;;;18.40;85.80;;;16.99;82.96;101803.88;4992981;28;20542;-66
2021/09/01 10:39:35;;;;;;;;;;;18.40;86.20;;;16.99;82.64;101801.97;4994680;28;19930;-66
2021/09/01 10:42:47;;;;;;;;;;;18.40;85.30;;;17.02;82.69;101803.50;4979036;28;19980;-66
2021/09/01 10:45:18;;;;;;;;;;;18.40;85.50;;;17.02;82.84;101802.59;5004198;28;19936;-66
2021/09/01 10:48:06;;;;;;;;;;;18.40;86.00;;;17.05;82.70;101796.72;5010049;28;19929;-66
2021/09/01 10:50:35;;;;;;;;;;;18.40;85.30;;;17.07;81.98;101792.72;5003124;28;19940;-66
2021/09/01 10:53:04;;;;;;;;;;;18.50;84.90;;;17.08;81.80;101791.69;5004304;28;20474;-66
2021/09/01 10:55:33;;;;;;;;;;;18.50;85.20;;;17.10;83.40;101792.34;5016521;28;20388;-66
2021/09/01 10:58:18;;;;;;;;;;;18.50;86.50;;;17.09;82.67;101798.03;5009881;28;19930;-66
2021/09/01 11:00:53;;;;;;;;;;;18.50;85.50;;;17.10;82.72;101799.75;5000235;28;20349;-66
2021/09/01 11:03:28;;;;;;;;;;;18.50;85.60;;;17.10;83.16;101795.09;5020933;28;20027;-67
2021/09/01 11:05:55;;;;;;;;;;;18.50;86.40;;;17.10;84.08;101800.59;4992173;28;20352;-66
2021/09/01 11:08:22;;;;;;;;;;;18.50;86.90;;;17.09;83.98;101804.38;4982881;28;19929;-66
2021/09/01 11:10:56;;;;;;;;;;;18.40;86.60;;;17.09;84.00;101798.88;5009588;28;20556;-66
2021/09/01 11:13:39;;;;;;;;;;;18.40;86.80;;;17.08;83.82;101791.69;5008895;28;19929;-66
2021/09/01 11:16:19;;;;;;;;;;;18.40;87.00;;;17.08;84.15;101791.69;5009332;28;19937;-67
2021/09/01 11:19:05;;;;;;;;;;;18.40;87.30;;;17.09;83.78;101793.38;5003120;28;20573;-67